createdAt,value
2019-02-09T00:01:41.713Z,8.70
2019-02-09T00:04:11.609Z,8.70
2019-02-09T00:06:41.750Z,8.70
2019-02-09T00:09:11.716Z,8.60
2019-02-09T00:11:41.543Z,8.60
2019-02-09T00:14:11.370Z,8.60
2019-02-09T00:16:41.185Z,8.60
2019-02-09T00:19:11.007Z,8.60
2019-02-09T00:21:40.902Z,8.60
2019-02-09T00:24:10.943Z,8.70
2019-02-09T00:26:40.886Z,8.60
2019-02-09T00:29:10.769Z,8.60
2019-02-09T00:31:40.666Z,8.60
2019-02-09T00:34:10.724Z,8.60
2019-02-09T00:36:40.966Z,8.60
2019-02-09T00:39:11.205Z,8.60
2019-02-09T00:41:41.289Z,8.50
2019-02-09T00:44:11.173Z,8.60
2019-02-09T00:46:40.988Z,8.60
2019-02-09T00:49:10.895Z,8.50
2019-02-09T00:51:40.789Z,8.50
2019-02-09T00:54:10.679Z,8.40
2019-02-09T00:56:40.569Z,8.40
2019-02-09T00:59:10.542Z,8.40
2019-02-09T01:01:40.444Z,8.50
2019-02-09T01:04:10.672Z,8.40
2019-02-09T01:06:40.642Z,8.40
2019-02-09T01:09:13.359Z,8.40
2019-02-09T01:11:43.265Z,8.40
2019-02-09T01:14:13.225Z,8.20
2019-02-09T01:16:43.103Z,8.20
2019-02-09T01:19:13.052Z,8.30
2019-02-09T01:21:42.933Z,8.30
2019-02-09T01:24:12.832Z,8.20
2019-02-09T01:26:42.793Z,8.20
2019-02-09T01:29:12.612Z,8.10
2019-02-09T01:31:42.600Z,8.00
2019-02-09T01:34:12.525Z,7.90
2019-02-09T01:36:42.554Z,7.90
2019-02-09T01:39:12.744Z,7.90
2019-02-09T01:41:42.829Z,7.90
2019-02-09T01:44:12.927Z,8.00
2019-02-09T01:46:42.762Z,8.00
2019-02-09T01:49:12.651Z,8.00
2019-02-09T01:51:42.492Z,7.90
2019-02-09T01:54:12.388Z,7.90
2019-02-09T01:56:42.454Z,7.90
2019-02-09T01:59:12.375Z,7.90
2019-02-09T02:01:42.382Z,7.90
2019-02-09T02:04:12.301Z,8.00
2019-02-09T02:06:42.373Z,8.00
2019-02-09T02:09:12.467Z,7.90
2019-02-09T02:11:42.368Z,7.90
2019-02-09T02:14:12.454Z,8.00
2019-02-09T02:16:42.527Z,8.00
2019-02-09T02:19:12.516Z,8.00
2019-02-09T02:21:42.824Z,8.00
2019-02-09T02:24:12.844Z,8.00
2019-02-09T02:26:42.717Z,8.00
2019-02-09T02:29:13.002Z,7.90
2019-02-09T02:31:42.888Z,8.00
2019-02-09T02:34:13.135Z,8.20
2019-02-09T02:36:43.277Z,8.10
2019-02-09T02:39:13.442Z,8.20
2019-02-09T02:41:43.400Z,8.20
2019-02-09T02:44:13.610Z,8.20
2019-02-09T02:46:43.721Z,8.30
2019-02-09T02:49:13.632Z,8.30
2019-02-09T02:51:43.461Z,8.30
2019-02-09T02:54:13.352Z,8.40
2019-02-09T02:56:43.241Z,8.30
2019-02-09T02:59:13.056Z,8.30
2019-02-09T03:01:42.867Z,8.30
2019-02-09T03:04:12.763Z,8.00
2019-02-09T03:06:42.600Z,8.00
2019-02-09T03:09:12.513Z,7.80
2019-02-09T03:11:42.326Z,7.70
2019-02-09T03:14:12.264Z,7.60
2019-02-09T03:16:42.219Z,7.50
2019-02-09T03:19:12.392Z,7.50
2019-02-09T03:21:42.341Z,7.40
2019-02-09T03:24:12.311Z,7.30
2019-02-09T03:26:42.114Z,7.30
2019-02-09T03:29:12.028Z,7.40
2019-02-09T03:31:41.913Z,7.20
2019-02-09T03:34:12.215Z,7.20
2019-02-09T03:36:42.232Z,7.20
2019-02-09T03:39:12.317Z,7.10
2019-02-09T03:41:42.298Z,7.10
2019-02-09T03:44:12.725Z,7.10
2019-02-09T03:46:42.867Z,7.10
2019-02-09T03:49:12.917Z,7.00
2019-02-09T03:51:43.086Z,7.10
2019-02-09T03:54:13.181Z,7.00
2019-02-09T03:56:43.257Z,7.00
2019-02-09T03:59:13.330Z,7.00
2019-02-09T04:01:43.812Z,6.90
2019-02-09T04:04:13.825Z,6.90
2019-02-09T04:06:43.638Z,6.90
2019-02-09T04:09:13.587Z,7.00
2019-02-09T04:11:43.402Z,7.00
2019-02-09T04:14:13.448Z,6.90
2019-02-09T04:16:43.458Z,6.90
2019-02-09T04:19:13.325Z,6.90
2019-02-09T04:21:46.031Z,6.90
2019-02-09T04:24:15.896Z,6.80
2019-02-09T04:26:45.764Z,6.80
2019-02-09T04:29:15.736Z,6.80
2019-02-09T04:31:45.930Z,6.80
2019-02-09T04:34:16.032Z,7.00
2019-02-09T04:36:45.948Z,6.90
2019-02-09T04:39:16.127Z,7.10
2019-02-09T04:41:46.010Z,7.10
2019-02-09T04:44:16.214Z,7.10
2019-02-09T04:46:46.109Z,7.20
2019-02-09T04:49:16.469Z,7.20
2019-02-09T04:51:46.848Z,7.30
2019-02-09T04:54:16.748Z,7.30
2019-02-09T04:56:46.574Z,7.40
2019-02-09T04:59:16.465Z,7.40
2019-02-09T05:01:46.477Z,7.30
2019-02-09T05:04:16.432Z,7.30
2019-02-09T05:06:46.373Z,7.30
2019-02-09T05:09:16.369Z,7.40
2019-02-09T05:11:46.365Z,7.40
2019-02-09T05:14:16.172Z,7.50
2019-02-09T05:16:46.141Z,7.50
2019-02-09T05:19:16.197Z,7.50
2019-02-09T05:21:46.000Z,7.50
2019-02-09T05:24:15.822Z,7.60
2019-02-09T05:26:45.641Z,7.70
2019-02-09T05:29:15.446Z,7.70
2019-02-09T05:31:45.404Z,7.60
2019-02-09T05:34:15.241Z,7.60
2019-02-09T05:36:45.290Z,7.50
2019-02-09T05:39:15.170Z,7.50
2019-02-09T05:41:44.985Z,7.40
2019-02-09T05:44:14.866Z,7.30
2019-02-09T05:46:44.773Z,7.30
2019-02-09T05:49:14.584Z,7.30
2019-02-09T05:51:44.655Z,7.30
2019-02-09T05:54:14.535Z,7.10
2019-02-09T05:56:44.516Z,7.10
2019-02-09T05:59:14.336Z,7.10
2019-02-09T06:01:44.340Z,7.10
2019-02-09T06:06:53.498Z,7.10
2019-02-09T06:09:23.309Z,7.10
2019-02-09T06:11:53.126Z,7.10
2019-02-09T06:14:23.000Z,7.30
2019-02-09T06:16:52.902Z,7.30
2019-02-09T06:21:52.088Z,7.20
2019-02-09T06:24:21.888Z,7.20
2019-02-09T06:26:51.780Z,7.20
2019-02-09T06:29:21.585Z,7.30
2019-02-09T06:31:52.075Z,7.30
2019-02-09T06:34:21.897Z,7.30
2019-02-09T06:36:52.019Z,7.20
2019-02-09T06:41:51.064Z,7.10
2019-02-09T06:44:20.856Z,7.10
2019-02-09T06:46:50.666Z,7.10
2019-02-09T06:49:20.472Z,7.10
2019-02-09T06:51:50.283Z,7.10
2019-02-09T06:54:20.164Z,7.10
2019-02-09T06:56:49.976Z,7.10
2019-02-09T06:59:19.790Z,7.10
2019-02-09T07:01:49.689Z,7.00
2019-02-09T07:04:19.512Z,6.90
2019-02-09T07:06:49.404Z,6.80
2019-02-09T07:09:19.284Z,6.90
2019-02-09T07:11:49.249Z,6.90
2019-02-09T07:14:19.063Z,7.00
2019-02-09T07:16:48.953Z,6.90
2019-02-09T07:19:18.765Z,6.90
2019-02-09T07:21:48.640Z,6.80
2019-02-09T07:24:18.464Z,7.00
2019-02-09T07:26:48.350Z,7.00
2019-02-09T07:29:18.428Z,6.90
2019-02-09T07:31:48.237Z,6.90
2019-02-09T07:34:18.047Z,6.90
2019-02-09T07:36:47.941Z,6.90
2019-02-09T07:39:17.748Z,7.00
2019-02-09T07:41:47.543Z,6.90
2019-02-09T07:46:46.580Z,7.00
2019-02-09T07:49:16.380Z,7.00
2019-02-09T07:51:46.180Z,7.00
2019-02-09T07:54:16.069Z,7.00
2019-02-09T07:56:46.003Z,7.00
2019-02-09T07:59:15.959Z,7.10
2019-02-09T08:01:46.097Z,7.10
2019-02-09T08:04:17.100Z,7.20
2019-02-09T08:06:47.048Z,7.30
2019-02-09T08:09:16.925Z,7.40
2019-02-09T08:11:46.788Z,7.50
2019-02-09T08:14:16.855Z,7.80
2019-02-09T08:16:46.762Z,7.90
2019-02-09T08:19:16.800Z,8.10
2019-02-09T08:21:46.784Z,8.10
2019-02-09T08:24:16.588Z,8.30
2019-02-09T08:26:46.383Z,8.40
2019-02-09T08:29:16.260Z,8.40
2019-02-09T08:31:46.136Z,8.40
2019-02-09T08:34:16.079Z,8.30
2019-02-09T08:36:46.357Z,8.20
2019-02-09T08:39:16.265Z,8.20
2019-02-09T08:41:46.308Z,8.20
2019-02-09T08:44:17.204Z,8.30
2019-02-09T08:46:47.324Z,8.30
2019-02-09T08:49:17.473Z,8.30
2019-02-09T08:51:47.379Z,8.30
2019-02-09T08:54:17.310Z,8.40
2019-02-09T08:56:47.179Z,8.30
2019-02-09T08:59:16.989Z,8.40
2019-02-09T09:01:46.880Z,8.50
2019-02-09T09:04:16.684Z,8.70
2019-02-09T09:06:46.559Z,8.70
2019-02-09T09:09:16.467Z,10.10
2019-02-09T09:11:46.255Z,8.80
2019-02-09T09:14:16.132Z,8.80
2019-02-09T09:16:46.099Z,8.90
2019-02-09T09:21:45.273Z,8.90
2019-02-09T09:24:15.080Z,8.90
2019-02-09T09:26:44.877Z,9.10
2019-02-09T09:29:15.054Z,9.10
2019-02-09T09:31:44.931Z,9.20
2019-02-09T09:34:14.856Z,9.20
2019-02-09T09:36:45.152Z,9.20
2019-02-09T09:39:15.028Z,9.30
2019-02-09T09:41:45.240Z,9.30
2019-02-09T09:44:18.004Z,9.40
2019-02-09T09:46:49.537Z,9.40
2019-02-09T09:49:19.424Z,9.40
2019-02-09T09:51:49.317Z,9.50
2019-02-09T09:54:19.121Z,9.50
2019-02-09T09:56:48.999Z,9.60
2019-02-09T09:59:18.901Z,9.60
2019-02-09T10:01:48.708Z,9.60
2019-02-09T10:06:47.821Z,9.80
2019-02-09T10:09:17.708Z,9.70
2019-02-09T10:11:47.521Z,9.90
2019-02-09T10:14:17.332Z,10.00
2019-02-09T10:16:48.124Z,9.90
2019-02-09T10:19:18.024Z,10.00
2019-02-09T10:21:47.908Z,10.00
2019-02-09T10:24:17.717Z,10.10
2019-02-09T10:26:47.716Z,10.20
2019-02-09T10:29:17.583Z,10.40
2019-02-09T10:31:47.472Z,10.50
2019-02-09T10:34:17.816Z,10.70
2019-02-09T10:36:47.646Z,10.80
2019-02-09T10:39:17.458Z,10.90
2019-02-09T10:41:47.277Z,10.80
2019-02-09T10:44:17.141Z,10.90
2019-02-09T10:46:46.981Z,10.90
2019-02-09T10:49:16.784Z,10.70
2019-02-09T10:51:46.684Z,10.60
2019-02-09T10:54:19.288Z,10.40
2019-02-09T10:56:49.249Z,10.50
2019-02-09T10:59:19.124Z,10.60
2019-02-09T11:01:49.013Z,10.80
2019-02-09T11:06:48.291Z,10.80
2019-02-09T11:09:21.968Z,10.80
2019-02-09T11:11:51.869Z,10.60
2019-02-09T11:14:21.748Z,10.50
2019-02-09T11:16:51.636Z,10.40
2019-02-09T11:19:21.530Z,10.30
2019-02-09T11:21:51.356Z,10.40
2019-02-09T11:24:21.169Z,10.40
2019-02-09T11:26:50.993Z,10.40
2019-02-09T11:29:20.792Z,10.30
2019-02-09T11:31:50.756Z,10.40
2019-02-09T11:34:20.660Z,10.30
2019-02-09T11:36:50.495Z,10.30
2019-02-09T11:39:20.300Z,10.30
2019-02-09T11:41:50.188Z,10.40
2019-02-09T11:44:19.992Z,10.30
2019-02-09T11:46:49.802Z,10.30
2019-02-09T11:49:19.736Z,10.20
2019-02-09T11:51:50.223Z,10.30
2019-02-09T11:54:20.124Z,10.80
2019-02-09T11:56:50.128Z,10.80
2019-02-09T11:59:21.308Z,11.00
2019-02-09T12:01:52.018Z,11.10
2019-02-09T12:04:21.904Z,11.10
2019-02-09T12:06:52.048Z,11.20
2019-02-09T12:09:21.928Z,11.20
2019-02-09T12:11:51.753Z,11.30
2019-02-09T12:16:50.880Z,11.60
2019-02-09T12:19:20.764Z,11.70
2019-02-09T12:21:50.576Z,11.70
2019-02-09T12:24:20.479Z,11.80
2019-02-09T12:26:50.524Z,11.80
2019-02-09T12:29:20.433Z,11.90
2019-02-09T12:31:50.656Z,11.90
2019-02-09T12:34:20.493Z,11.90
2019-02-09T12:41:48.966Z,11.70
2019-02-09T12:46:48.222Z,11.50
2019-02-09T12:49:18.106Z,11.40
2019-02-09T12:51:47.912Z,11.60
2019-02-09T12:54:17.720Z,11.60
2019-02-09T12:56:47.533Z,11.50
2019-02-09T12:59:17.423Z,11.50
2019-02-09T13:01:47.251Z,11.50
2019-02-09T13:04:17.208Z,11.60
2019-02-09T13:06:47.180Z,11.60
2019-02-09T13:16:44.771Z,11.50
2019-02-09T13:21:43.806Z,11.50
2019-02-09T13:24:13.683Z,11.40
2019-02-09T13:26:43.568Z,11.40
2019-02-09T13:31:42.599Z,11.60
2019-02-09T13:34:12.437Z,11.60
2019-02-09T13:36:42.393Z,11.70
2019-02-09T13:39:12.336Z,11.70
2019-02-09T13:41:42.414Z,11.60
2019-02-09T13:44:12.385Z,11.60
2019-02-09T13:46:42.285Z,11.60
2019-02-09T13:49:12.092Z,11.50
2019-02-09T13:51:41.997Z,11.50
2019-02-09T13:54:11.897Z,11.50
2019-02-09T13:59:10.944Z,11.50
2019-02-09T14:01:40.887Z,11.50
2019-02-09T14:04:10.821Z,11.50
2019-02-09T14:06:40.741Z,11.50
2019-02-09T14:11:39.925Z,11.30
2019-02-09T14:16:39.176Z,11.10
2019-02-09T14:19:09.033Z,11.10
2019-02-09T14:21:38.831Z,11.20
2019-02-09T14:24:10.462Z,11.20
2019-02-09T14:26:40.523Z,11.20
2019-02-09T14:31:39.705Z,11.10
2019-02-09T14:34:09.688Z,11.00
2019-02-09T14:39:11.518Z,10.80
2019-02-09T14:41:41.423Z,10.80
2019-02-09T14:44:11.316Z,10.70
2019-02-09T14:46:41.268Z,10.80
2019-02-09T14:49:11.325Z,10.70
2019-02-09T14:51:41.216Z,10.70
2019-02-09T14:54:11.134Z,10.60
2019-02-09T14:56:41.020Z,10.50
2019-02-09T14:59:10.821Z,10.50
2019-02-09T15:01:41.542Z,10.50
2019-02-09T15:04:11.504Z,10.40
2019-02-09T15:06:41.394Z,10.30
2019-02-09T15:09:11.287Z,10.30
2019-02-09T15:11:41.133Z,10.30
2019-02-09T15:14:11.013Z,10.20
2019-02-09T15:16:49.657Z,10.10
2019-02-09T15:19:22.216Z,10.20
2019-02-09T15:21:52.122Z,10.20
2019-02-09T15:24:22.077Z,10.10
2019-02-09T15:26:51.928Z,10.20
2019-02-09T15:29:21.821Z,10.20
2019-02-09T15:31:51.653Z,10.20
2019-02-09T15:34:21.468Z,10.10
2019-02-09T15:36:51.365Z,10.10
2019-02-09T15:39:21.424Z,10.20
2019-02-09T15:41:51.307Z,10.10
2019-02-09T15:44:21.141Z,10.10
2019-02-09T15:46:50.987Z,10.10
2019-02-09T15:51:50.052Z,10.10
2019-02-09T15:56:49.205Z,10.00
2019-02-09T15:59:19.020Z,10.10
2019-02-09T16:01:48.868Z,10.00
2019-02-09T16:04:18.725Z,10.00
2019-02-09T16:06:48.616Z,9.90
2019-02-09T16:09:18.409Z,9.80
2019-02-09T16:21:45.473Z,9.80
2019-02-09T16:24:15.268Z,9.70
2019-02-09T16:26:45.072Z,9.70
2019-02-09T16:29:14.942Z,9.70
2019-02-09T16:31:45.153Z,9.60
2019-02-09T16:36:44.336Z,9.50
2019-02-09T16:39:14.135Z,9.50
2019-02-09T16:41:43.944Z,9.40
2019-02-09T16:44:13.736Z,9.40
2019-02-09T16:46:43.563Z,9.40
2019-02-09T16:49:13.436Z,9.40
2019-02-09T16:51:43.261Z,9.40
2019-02-09T16:54:13.143Z,9.30
2019-02-09T16:56:43.149Z,9.30
2019-02-09T16:59:12.968Z,9.30
2019-02-09T17:01:43.135Z,9.20
2019-02-09T17:04:13.092Z,9.20
2019-02-09T17:06:42.993Z,9.00
2019-02-09T17:09:12.948Z,9.00
2019-02-09T17:11:42.836Z,8.90
2019-02-09T17:14:12.663Z,8.90
2019-02-09T17:16:43.285Z,8.80
2019-02-09T17:19:13.089Z,8.80
2019-02-09T17:21:42.977Z,8.80
2019-02-09T17:24:12.921Z,8.80
2019-02-09T17:26:42.836Z,8.70
2019-02-09T17:29:12.649Z,8.60
2019-02-09T17:31:42.528Z,8.70
2019-02-09T17:34:12.657Z,8.70
2019-02-09T17:36:42.484Z,8.70
2019-02-09T17:39:12.508Z,8.70
2019-02-09T17:41:42.304Z,8.60
2019-02-09T17:44:12.184Z,8.60
2019-02-09T17:46:42.065Z,8.50
2019-02-09T17:49:12.017Z,8.60
2019-02-09T17:51:41.971Z,8.60
2019-02-09T17:54:11.919Z,8.60
2019-02-09T17:56:41.755Z,8.60
2019-02-09T17:59:11.796Z,8.40
2019-02-09T18:01:41.598Z,8.40
2019-02-09T18:04:11.712Z,8.30
2019-02-09T18:06:41.589Z,8.20
2019-02-09T18:09:11.476Z,8.20
2019-02-09T18:11:41.270Z,8.10
2019-02-09T18:14:11.156Z,8.10
2019-02-09T18:19:10.424Z,8.00
2019-02-09T18:21:40.225Z,8.00
2019-02-09T18:24:10.180Z,8.00
2019-02-09T18:26:40.053Z,8.00
2019-02-09T18:29:09.929Z,7.90
2019-02-09T18:31:39.824Z,7.90
2019-02-09T18:34:09.636Z,7.90
2019-02-09T18:36:39.533Z,7.90
2019-02-09T18:39:11.816Z,7.80
2019-02-09T18:41:41.765Z,7.80
2019-02-09T18:44:11.645Z,7.70
2019-02-09T18:46:41.536Z,7.60
2019-02-09T18:49:11.424Z,7.60
2019-02-09T18:51:41.296Z,7.50
2019-02-09T18:54:11.173Z,7.50
2019-02-09T18:56:41.125Z,7.50
2019-02-09T18:59:10.930Z,7.50
2019-02-09T19:01:40.822Z,7.50
2019-02-09T19:04:10.972Z,7.50
2019-02-09T19:06:40.776Z,7.50
2019-02-09T19:09:10.809Z,7.50
2019-02-09T19:11:40.709Z,7.50
2019-02-09T19:14:11.092Z,7.60
2019-02-09T19:16:40.964Z,7.70
2019-02-09T19:19:10.917Z,7.70
2019-02-09T19:21:40.746Z,7.70
2019-02-09T19:24:10.692Z,7.90
2019-02-09T19:26:40.505Z,7.90
2019-02-09T19:29:10.648Z,8.00
2019-02-09T19:31:40.529Z,7.90
2019-02-09T19:34:10.349Z,8.00
2019-02-09T19:36:40.220Z,8.00
2019-02-09T19:39:10.769Z,8.00
2019-02-09T19:41:40.572Z,8.00
2019-02-09T19:44:10.404Z,8.10
2019-02-09T19:49:09.617Z,8.00
2019-02-09T19:51:39.416Z,8.00
2019-02-09T19:54:09.292Z,7.90
2019-02-09T19:56:39.167Z,8.00
2019-02-09T19:59:09.120Z,8.00
2019-02-09T20:01:39.077Z,7.90
2019-02-09T20:04:09.027Z,8.00
2019-02-09T20:06:38.921Z,8.00
2019-02-09T20:09:09.499Z,7.90
2019-02-09T20:11:39.300Z,8.10
2019-02-09T20:14:09.273Z,8.10
2019-02-09T20:16:40.901Z,8.10
2019-02-09T20:19:10.704Z,8.10
2019-02-09T20:21:40.502Z,8.00
2019-02-09T20:24:10.389Z,8.00
2019-02-09T20:26:40.188Z,8.00
2019-02-09T20:29:10.000Z,8.00
2019-02-09T20:31:39.876Z,8.10
2019-02-09T20:34:09.682Z,8.00
2019-02-09T20:36:39.640Z,8.00
2019-02-09T20:39:09.672Z,8.00
2019-02-09T20:41:39.689Z,8.00
2019-02-09T20:44:09.816Z,8.00
2019-02-09T20:46:39.612Z,8.00
2019-02-09T20:49:09.428Z,8.00
2019-02-09T20:51:39.244Z,8.00
2019-02-09T20:54:09.121Z,8.00
2019-02-09T20:56:38.937Z,7.90
2019-02-09T20:59:08.756Z,7.90
2019-02-09T21:01:38.554Z,7.80
2019-02-09T21:04:08.372Z,7.80
2019-02-09T21:06:38.501Z,7.80
2019-02-09T21:09:09.038Z,7.80
2019-02-09T21:11:38.981Z,7.80
2019-02-09T21:14:08.860Z,7.90
2019-02-09T21:16:38.660Z,7.90
2019-02-09T21:19:08.464Z,7.90
2019-02-09T21:21:38.585Z,7.90
2019-02-09T21:24:08.527Z,8.00
2019-02-09T21:26:38.343Z,8.00
2019-02-09T21:29:08.144Z,8.00
2019-02-09T21:31:38.204Z,8.10
2019-02-09T21:34:08.017Z,8.10
2019-02-09T21:36:37.829Z,8.10
2019-02-09T21:39:09.413Z,8.10
2019-02-09T21:41:39.469Z,8.10
2019-02-09T21:44:09.266Z,8.10
2019-02-09T21:46:39.186Z,8.10
2019-02-09T21:49:09.005Z,8.00
2019-02-09T21:51:38.826Z,8.10
2019-02-09T21:54:08.705Z,8.10
2019-02-09T21:56:38.515Z,8.10
2019-02-09T21:59:08.329Z,8.10
2019-02-09T22:01:38.472Z,8.10
2019-02-09T22:04:08.428Z,8.10
2019-02-09T22:06:38.308Z,8.10
2019-02-09T22:09:08.935Z,8.00
2019-02-09T22:11:38.796Z,8.10
2019-02-09T22:14:09.145Z,8.10
2019-02-09T22:16:39.066Z,8.10
2019-02-09T22:19:09.169Z,8.10
2019-02-09T22:21:39.315Z,8.10
2019-02-09T22:24:09.376Z,8.10
2019-02-09T22:26:39.263Z,8.10
2019-02-09T22:29:09.052Z,8.10
2019-02-09T22:31:38.934Z,8.00
2019-02-09T22:34:09.113Z,8.10
2019-02-09T22:36:39.082Z,8.10
2019-02-09T22:39:09.860Z,8.00
2019-02-09T22:41:39.668Z,8.10
2019-02-09T22:44:09.556Z,8.00
2019-02-09T22:46:39.364Z,8.10
2019-02-09T22:49:09.225Z,8.10
2019-02-09T22:51:39.117Z,8.10
2019-02-09T22:54:09.064Z,8.10
2019-02-09T22:56:38.885Z,8.10
2019-02-09T22:59:08.756Z,8.10
2019-02-09T23:01:51.576Z,8.10
2019-02-09T23:04:45.133Z,8.00
2019-02-09T23:07:26.655Z,8.10
2019-02-09T23:09:57.760Z,8.00
2019-02-09T23:12:27.641Z,8.10
2019-02-09T23:14:57.586Z,8.10
2019-02-09T23:17:27.640Z,8.10
2019-02-09T23:19:57.528Z,8.20
2019-02-09T23:22:27.342Z,8.20
2019-02-09T23:24:57.188Z,8.20
2019-02-09T23:27:27.005Z,8.20
2019-02-09T23:29:56.820Z,8.20
2019-02-09T23:32:26.635Z,8.20
2019-02-09T23:34:56.448Z,8.30
2019-02-09T23:37:26.265Z,8.30
2019-02-09T23:39:56.071Z,8.30
2019-02-09T23:42:26.055Z,8.30
2019-02-09T23:44:56.101Z,8.30
2019-02-09T23:47:25.917Z,8.30
2019-02-09T23:49:55.737Z,8.20
2019-02-09T23:52:25.640Z,8.20
2019-02-09T23:54:55.425Z,8.20
2019-02-09T23:57:25.253Z,8.20
2019-02-09T23:59:55.081Z,8.10
